Time;durP1;ratioP1;P1;durP2;ratioP2;P2;SDS_P1;SDS_P2;PMS_P1;PMS_P2;Temp;Humidity;BMP_temperature;BMP_pressure;BME280_temperature;BME280_humidity;BME280_pressure;Samples;Min_cycle;Max_cycle;Signal;HPM_P1;HPM_P2
2023/11/30 00:01:12;;;;;;;17.10;10.63;;;;;;;3.79;96.34;96826.88;4189843;28;20288;-88
2023/11/30 00:03:16;;;;;;;19.60;11.30;;;;;;;3.80;96.33;96832.84;4189616;28;20639;-88
2023/11/30 00:05:19;;;;;;;19.02;11.00;;;;;;;3.78;95.79;96822.63;4192468;28;20611;-88
2023/11/30 00:07:25;;;;;;;16.67;10.57;;;;;;;3.79;95.76;96821.72;4172047;28;20214;-87
2023/11/30 00:09:28;;;;;;;19.25;11.60;;;;;;;3.77;96.33;96821.00;4185805;28;20236;-88
2023/11/30 00:11:33;;;;;;;19.70;10.73;;;;;;;3.80;95.88;96818.25;4169848;28;20576;-88
2023/11/30 00:13:36;;;;;;;15.80;10.50;;;;;;;3.83;95.88;96827.50;4182962;28;20201;-88
2023/11/30 00:15:39;;;;;;;14.98;9.10;;;;;;;3.83;96.12;96823.19;4187904;28;20292;-88
2023/11/30 00:17:42;;;;;;;13.60;8.45;;;;;;;3.86;95.89;96825.59;4185388;28;20305;-88
2023/11/30 00:19:45;;;;;;;17.27;9.90;;;;;;;3.87;95.64;96813.53;4202845;28;20200;-88
2023/11/30 00:21:48;;;;;;;14.75;9.50;;;;;;;3.86;95.49;96820.44;4188075;28;20709;-88
2023/11/30 00:23:51;;;;;;;14.57;8.73;;;;;;;3.86;96.67;96825.59;4166307;28;20202;-88
2023/11/30 00:25:54;;;;;;;15.32;9.45;;;;;;;3.86;95.40;96817.84;4183510;28;20221;-88
2023/11/30 00:27:59;;;;;;;18.85;10.10;;;;;;;3.86;95.10;96823.00;4186151;28;20205;-88
2023/11/30 00:30:02;;;;;;;14.05;9.80;;;;;;;3.87;95.83;96819.50;4183353;28;20226;-88
2023/11/30 00:32:07;;;;;;;11.75;8.63;;;;;;;3.89;96.47;96819.41;4186143;28;20226;-88
2023/11/30 00:34:10;;;;;;;13.15;8.65;;;;;;;3.88;95.34;96815.19;4185699;28;20300;-88
2023/11/30 00:36:13;;;;;;;14.25;9.35;;;;;;;3.85;94.67;96810.22;4183834;28;20745;-88
2023/11/30 00:38:16;;;;;;;14.68;9.20;;;;;;;3.82;94.75;96805.25;4166707;28;20230;-88
2023/11/30 00:40:19;;;;;;;15.20;9.52;;;;;;;3.79;95.40;96800.28;4164516;28;20232;-89
2023/11/30 00:42:22;;;;;;;14.05;8.55;;;;;;;3.75;94.92;96794.47;4168010;28;20316;-87
2023/11/30 00:44:27;;;;;;;14.27;8.65;;;;;;;3.73;94.75;96787.78;4170799;28;20285;-88
2023/11/30 00:46:32;;;;;;;16.40;9.48;;;;;;;3.69;94.70;96783.72;4189399;28;20298;-87
2023/11/30 00:48:35;;;;;;;12.70;8.45;;;;;;;3.66;94.50;96783.91;4189823;28;20232;-87
2023/11/30 00:50:38;;;;;;;16.30;9.35;;;;;;;3.64;95.06;96784.94;4169727;28;20213;-88
2023/11/30 00:52:41;;;;;;;13.80;8.95;;;;;;;3.61;94.21;96788.53;4185314;28;20929;-88
2023/11/30 00:54:45;;;;;;;15.20;9.73;;;;;;;3.57;94.25;96773.38;4181772;28;20305;-87
2023/11/30 00:56:48;;;;;;;13.02;8.88;;;;;;;3.54;94.48;96771.78;4167943;28;20206;-87
2023/11/30 00:58:50;;;;;;;12.27;8.05;;;;;;;3.52;94.35;96767.66;4186941;28;20209;-87
2023/11/30 01:00:55;;;;;;;12.60;8.40;;;;;;;3.52;94.46;96765.91;4184728;28;20244;-87
2023/11/30 01:03:03;;;;;;;17.15;11.02;;;;;;;3.51;94.86;96768.59;4166885;28;20255;-88
2023/11/30 01:05:06;;;;;;;22.38;10.02;;;;;;;3.53;94.32;96767.56;4189204;28;20221;-87
2023/11/30 01:07:09;;;;;;;15.15;9.55;;;;;;;3.52;94.75;96758.19;4184828;28;20205;-87
2023/11/30 01:09:13;;;;;;;17.38;10.43;;;;;;;3.51;93.67;96764.25;4171571;28;20213;-87
2023/11/30 01:11:16;;;;;;;17.95;10.30;;;;;;;3.50;94.25;96764.34;4188666;28;20194;-87
2023/11/30 01:13:19;;;;;;;15.50;10.32;;;;;;;3.51;94.37;96758.28;4188689;28;20197;-87
2023/11/30 01:15:22;;;;;;;14.80;9.57;;;;;;;3.51;94.09;96764.25;4187627;28;20197;-87
2023/11/30 01:17:27;;;;;;;14.82;9.30;;;;;;;3.48;94.33;96766.19;4206734;28;20236;-87
2023/11/30 01:19:29;;;;;;;15.07;9.80;;;;;;;3.48;93.56;96764.44;4171045;28;20210;-87
2023/11/30 01:21:32;;;;;;;16.75;10.70;;;;;;;3.46;93.43;96781.75;4186079;28;20249;-87
2023/11/30 01:23:35;;;;;;;16.48;9.60;;;;;;;3.46;93.58;96786.09;4169627;28;20206;-88
2023/11/30 01:25:38;;;;;;;14.60;9.10;;;;;;;3.47;94.09;96782.56;4187594;28;20225;-87
2023/11/30 01:27:41;;;;;;;15.27;9.00;;;;;;;3.43;93.70;96776.78;4184781;28;20204;-87
2023/11/30 01:29:44;;;;;;;15.52;9.15;;;;;;;3.39;92.55;96785.63;4187056;28;20207;-88
2023/11/30 01:31:47;;;;;;;17.25;8.70;;;;;;;3.38;93.06;96789.13;4166707;28;20229;-88
2023/11/30 01:33:51;;;;;;;14.30;8.77;;;;;;;3.37;93.12;96791.81;4184117;28;20215;-88
2023/11/30 01:35:55;;;;;;;13.13;7.78;;;;;;;3.35;93.27;96781.59;4172623;28;20210;-88
2023/11/30 01:37:58;;;;;;;12.57;8.70;;;;;;;3.37;93.57;96781.50;4182492;28;20264;-88
2023/11/30 01:40:01;;;;;;;15.07;8.45;;;;;;;3.37;93.04;96782.31;4169181;28;20237;-87
2023/11/30 01:42:05;;;;;;;14.77;9.15;;;;;;;3.36;93.30;96779.84;4169126;28;20213;-87
2023/11/30 01:44:09;;;;;;;12.35;8.55;;;;;;;3.36;93.17;96783.22;4173707;28;20202;-88
2023/11/30 01:46:13;;;;;;;12.77;8.10;;;;;;;3.38;92.83;96783.97;4185827;28;20212;-87
2023/11/30 01:48:17;;;;;;;13.52;9.18;;;;;;;3.34;93.42;96777.34;4183231;28;20201;-88
2023/11/30 01:50:22;;;;;;;13.05;8.50;;;;;;;3.33;93.43;96769.72;4182752;28;20209;-87
2023/11/30 01:52:25;;;;;;;18.58;9.90;;;;;;;3.29;91.96;96774.25;4173268;28;20287;-88
2023/11/30 01:54:29;;;;;;;13.80;9.00;;;;;;;3.25;92.93;96768.53;4184459;28;20257;-87
2023/11/30 01:56:33;;;;;;;15.00;9.65;;;;;;;3.25;93.00;96768.53;4169893;28;20600;-87
2023/11/30 01:58:37;;;;;;;15.13;8.52;;;;;;;3.24;93.09;96764.31;4169383;28;20210;-87
2023/11/30 02:00:40;;;;;;;11.13;7.53;;;;;;;3.25;93.37;96765.94;4186166;28;20284;-87
2023/11/30 02:02:43;;;;;;;13.77;8.70;;;;;;;3.23;93.09;96757.50;4165377;28;20206;-88
2023/11/30 02:04:50;;;;;;;12.70;8.70;;;;;;;3.23;92.68;96760.06;4184416;28;20301;-86
2023/11/30 02:06:55;;;;;;;11.82;7.93;;;;;;;3.21;92.95;96759.34;4199334;28;20300;-87
2023/11/30 02:08:59;;;;;;;15.00;8.80;;;;;;;3.20;92.67;96758.50;4189698;28;20298;-87
2023/11/30 02:11:02;;;;;;;12.43;7.55;;;;;;;3.19;92.64;96756.88;4175017;28;20711;-88
2023/11/30 02:13:06;;;;;;;11.75;7.32;;;;;;;3.17;93.07;96763.84;4187126;28;20206;-87
2023/11/30 02:15:10;;;;;;;10.07;7.30;;;;;;;3.14;92.52;96758.88;4185779;28;20629;-88
2023/11/30 02:17:13;;;;;;;13.07;7.18;;;;;;;3.14;92.94;96753.72;4186124;28;20206;-87
2023/11/30 02:19:15;;;;;;;11.40;7.95;;;;;;;3.16;92.97;96759.63;4190123;28;20280;-87
2023/11/30 02:21:18;;;;;;;11.50;7.70;;;;;;;3.17;92.71;96755.28;4174321;28;20194;-88
2023/11/30 02:23:23;;;;;;;9.95;7.05;;;;;;;3.16;92.09;96748.47;4172372;28;20226;-88
2023/11/30 02:25:26;;;;;;;10.05;7.03;;;;;;;3.14;92.12;96737.47;4178614;28;20210;-88
2023/11/30 02:27:28;;;;;;;12.00;8.07;;;;;;;3.11;92.43;96723.03;4186662;28;20201;-87
2023/11/30 02:29:32;;;;;;;10.27;6.80;;;;;;;3.13;92.25;96720.34;4177601;28;20230;-87
2023/11/30 02:31:35;;;;;;;8.70;6.70;;;;;;;3.12;92.51;96719.53;4175944;28;20800;-88
2023/11/30 02:33:38;;;;;;;15.98;8.20;;;;;;;3.07;92.16;96710.44;4191451;28;20205;-88
2023/11/30 02:35:41;;;;;;;11.23;7.82;;;;;;;2.98;91.57;96708.44;4189277;28;20240;-88
2023/11/30 02:37:44;;;;;;;15.50;8.35;;;;;;;2.89;91.46;96694.34;4173097;28;20211;-87
2023/11/30 02:39:49;;;;;;;11.70;7.55;;;;;;;2.86;91.71;96704.84;4188650;28;20699;-88
2023/11/30 02:41:52;;;;;;;15.13;8.07;;;;;;;2.84;91.37;96700.69;4172408;28;20245;-88
2023/11/30 02:43:56;;;;;;;11.18;7.85;;;;;;;2.82;91.35;96703.34;4170191;28;20297;-86
2023/11/30 02:45:59;;;;;;;11.50;6.82;;;;;;;2.82;91.11;96699.97;4172057;28;20336;-87
2023/11/30 02:48:03;;;;;;;9.95;7.35;;;;;;;2.84;91.83;96709.25;4187489;28;20209;-87
2023/11/30 02:50:08;;;;;;;11.00;7.35;;;;;;;2.88;92.90;96699.59;4186273;28;20206;-88
2023/11/30 02:52:11;;;;;;;11.80;6.97;;;;;;;2.89;93.29;96696.13;4192533;28;20268;-88
2023/11/30 02:54:13;;;;;;;10.02;6.88;;;;;;;2.91;92.70;96702.00;4189037;28;20307;-88
2023/11/30 02:56:19;;;;;;;12.95;7.78;;;;;;;2.88;91.83;96692.69;4189903;28;20776;-88
2023/11/30 02:58:22;;;;;;;11.52;7.10;;;;;;;2.87;92.02;96695.38;4175742;28;20237;-88
2023/11/30 03:00:25;;;;;;;10.68;7.55;;;;;;;2.87;92.26;96697.94;4191746;28;20205;-87
2023/11/30 03:02:29;;;;;;;12.75;7.72;;;;;;;2.86;92.08;96686.00;4188543;28;20210;-88
2023/11/30 03:04:33;;;;;;;10.95;7.25;;;;;;;2.84;92.38;96688.69;4193400;28;20201;-88
2023/11/30 03:06:36;;;;;;;12.90;8.45;;;;;;;2.83;92.43;96675.91;4172412;28;20222;-87
2023/11/30 03:08:40;;;;;;;15.48;7.72;;;;;;;2.83;92.26;96681.88;4189084;28;20229;-88
2023/11/30 03:10:43;;;;;;;9.88;7.18;;;;;;;2.84;92.43;96690.41;4171432;28;20252;-87
2023/11/30 03:12:48;;;;;;;14.32;8.00;;;;;;;2.81;91.45;96677.72;4187247;28;20280;-88
2023/11/30 03:14:51;;;;;;;13.52;7.50;;;;;;;2.79;92.10;96692.44;4176877;28;20617;-88
2023/11/30 03:16:53;;;;;;;12.05;6.97;;;;;;;2.79;91.83;96687.28;4169253;28;20209;-87
2023/11/30 03:18:57;;;;;;;12.95;7.53;;;;;;;2.76;92.07;96695.19;4184539;28;20206;-88
2023/11/30 03:21:18;;;;;;;11.45;7.10;;;;;;;2.74;92.31;96694.47;4191774;28;20205;-88
2023/11/30 03:23:22;;;;;;;10.85;7.00;;;;;;;2.70;92.56;96689.59;4183130;28;20201;-88
2023/11/30 03:25:25;;;;;;;11.00;6.93;;;;;;;2.70;92.49;96690.41;4171593;28;20668;-87
2023/11/30 03:27:28;;;;;;;8.35;6.07;;;;;;;2.71;92.05;96692.06;4205040;28;20229;-88
2023/11/30 03:29:33;;;;;;;10.10;6.85;;;;;;;2.75;92.59;96688.38;4191007;28;20221;-88
2023/11/30 03:31:37;;;;;;;10.20;6.53;;;;;;;2.77;92.91;96689.13;4175737;28;20234;-87
2023/11/30 03:33:43;;;;;;;9.70;6.15;;;;;;;2.76;92.94;96684.91;4176698;28;20297;-88
2023/11/30 03:35:47;;;;;;;9.80;6.50;;;;;;;2.76;93.11;96682.31;4186329;28;20232;-87
2023/11/30 03:37:51;;;;;;;11.68;7.00;;;;;;;2.74;92.37;96675.59;4182360;28;20201;-87
2023/11/30 03:39:54;;;;;;;11.00;6.80;;;;;;;2.71;92.71;96675.81;4165813;28;20225;-87
2023/11/30 03:41:57;;;;;;;12.25;7.68;;;;;;;2.72;92.34;96662.03;4178072;28;20574;-87
2023/11/30 03:43:59;;;;;;;10.10;6.65;;;;;;;2.67;92.77;96654.56;4192653;28;20240;-88
2023/11/30 03:46:04;;;;;;;12.05;6.70;;;;;;;2.67;92.55;96646.84;4172477;28;20264;-87
2023/11/30 03:48:07;;;;;;;14.23;8.05;;;;;;;2.67;91.92;96644.28;4192369;28;20209;-88
2023/11/30 03:50:10;;;;;;;12.48;7.88;;;;;;;2.64;91.53;96647.03;4191166;28;20288;-87
2023/11/30 03:52:13;;;;;;;14.15;7.30;;;;;;;2.58;90.96;96639.69;4174351;28;20260;-88
2023/11/30 03:54:17;;;;;;;12.60;6.68;;;;;;;2.58;91.07;96641.44;4190087;28;20235;-87
2023/11/30 03:56:20;;;;;;;14.32;7.97;;;;;;;2.55;91.17;96646.78;4184469;28;20212;-87
2023/11/30 03:58:23;;;;;;;12.40;7.30;;;;;;;2.53;91.36;96636.59;4172447;28;20300;-88
2023/11/30 04:00:25;;;;;;;16.35;8.10;;;;;;;2.54;91.98;96637.41;4188425;28;20200;-88
2023/11/30 04:02:30;;;;;;;21.30;7.82;;;;;;;2.57;91.72;96642.34;4187590;28;20206;-88
2023/11/30 04:04:34;;;;;;;12.13;7.13;;;;;;;2.59;91.79;96632.81;4186216;28;20217;-88
2023/11/30 04:06:37;;;;;;;11.40;7.55;;;;;;;2.59;92.77;96625.91;4179835;28;20202;-88
2023/11/30 04:08:39;;;;;;;14.05;8.48;;;;;;;2.60;91.91;96617.28;4184930;28;20228;-88
2023/11/30 04:10:44;;;;;;;11.65;7.65;;;;;;;2.58;92.18;96613.97;4187276;28;20213;-87
2023/11/30 04:12:48;;;;;;;15.77;9.32;;;;;;;2.55;91.65;96611.59;4187716;28;20209;-88
2023/11/30 04:14:50;;;;;;;12.00;7.55;;;;;;;2.55;91.85;96613.34;4191353;28;20577;-88
2023/11/30 04:16:53;;;;;;;13.43;7.13;;;;;;;2.58;92.04;96615.72;4173007;28;20202;-88
2023/11/30 04:18:58;;;;;;;10.63;6.00;;;;;;;2.59;92.52;96617.38;4175358;28;20232;-87
2023/11/30 04:21:01;;;;;;;10.77;6.60;;;;;;;2.62;92.44;96622.34;4189101;28;20208;-88
2023/11/30 04:23:04;;;;;;;8.43;5.57;;;;;;;2.67;92.24;96623.69;4171110;28;20950;-87
2023/11/30 04:25:08;;;;;;;9.68;6.32;;;;;;;2.67;92.55;96615.97;4186415;28;20696;-87
2023/11/30 04:27:11;;;;;;;7.68;6.20;;;;;;;2.69;92.95;96621.88;4165451;28;20269;-88
2023/11/30 04:29:17;;;;;;;10.23;6.20;;;;;;;2.70;92.60;96615.78;4188843;28;20565;-88
2023/11/30 04:31:20;;;;;;;9.60;6.80;;;;;;;2.70;92.53;96605.50;4184689;28;20934;-87
2023/11/30 04:33:24;;;;;;;8.70;6.20;;;;;;;2.74;92.83;96601.84;4188784;28;20205;-87
2023/11/30 04:35:29;;;;;;;9.25;6.35;;;;;;;2.80;93.18;96593.75;4176448;28;20557;-87
2023/11/30 04:37:32;;;;;;;7.80;5.15;;;;;;;2.80;93.09;96596.31;4185494;28;20210;-87
2023/11/30 04:39:36;;;;;;;13.35;7.20;;;;;;;2.83;92.83;96590.97;4198802;28;20624;-88
2023/11/30 04:41:40;;;;;;;9.43;5.68;;;;;;;2.79;92.82;96592.06;4187088;28;20202;-87
2023/11/30 04:43:43;;;;;;;9.20;5.88;;;;;;;2.77;92.62;96588.78;4186888;28;20206;-87
2023/11/30 04:45:47;;;;;;;11.38;6.93;;;;;;;2.75;92.17;96590.59;4200822;28;20216;-87
2023/11/30 04:47:51;;;;;;;10.80;6.15;;;;;;;2.73;92.40;96589.88;4185201;28;20214;-87
2023/11/30 04:49:54;;;;;;;12.65;6.80;;;;;;;2.70;92.17;96587.50;4175393;28;20206;-87
2023/11/30 04:51:58;;;;;;;11.80;7.00;;;;;;;2.69;91.55;96591.00;4173440;28;20642;-87
2023/11/30 04:54:02;;;;;;;9.55;5.88;;;;;;;2.66;91.62;96591.19;4184865;28;20268;-88
2023/11/30 04:56:06;;;;;;;8.05;5.70;;;;;;;2.64;91.79;96581.91;4187283;28;20247;-88
2023/11/30 04:58:09;;;;;;;9.30;6.55;;;;;;;2.63;91.78;96585.41;4184586;28;20210;-88
2023/11/30 05:00:14;;;;;;;8.68;6.40;;;;;;;2.67;91.70;96592.81;4186750;28;20209;-87
2023/11/30 05:02:17;;;;;;;10.70;6.50;;;;;;;2.65;91.71;96586.16;4170958;28;20207;-88
2023/11/30 05:04:21;;;;;;;10.13;6.57;;;;;;;2.64;91.93;96587.88;4189594;28;20531;-88
2023/11/30 05:06:23;;;;;;;8.65;6.45;;;;;;;2.63;91.37;96588.81;4186660;28;20206;-88
2023/11/30 05:08:28;;;;;;;9.57;6.40;;;;;;;2.61;91.48;96577.78;4171906;28;20234;-88
2023/11/30 05:10:31;;;;;;;9.98;6.93;;;;;;;2.58;91.37;96582.28;4176393;28;20210;-87
2023/11/30 05:12:34;;;;;;;10.73;6.40;;;;;;;2.53;90.74;96568.88;4173904;28;20722;-88
2023/11/30 05:14:37;;;;;;;12.70;7.25;;;;;;;2.52;91.06;96562.91;4174213;28;20217;-87
2023/11/30 05:16:41;;;;;;;12.02;7.03;;;;;;;2.49;90.92;96562.28;4173837;28;20202;-87
2023/11/30 05:18:44;;;;;;;12.05;7.30;;;;;;;2.46;90.90;96559.88;4183355;28;20259;-88
2023/11/30 05:20:47;;;;;;;10.40;6.30;;;;;;;2.43;90.91;96571.16;4169139;28;20215;-87
2023/11/30 05:22:50;;;;;;;13.10;7.32;;;;;;;2.43;90.87;96570.34;4171988;28;20285;-87
2023/11/30 05:24:55;;;;;;;17.83;7.35;;;;;;;2.43;90.43;96578.88;4172718;28;20202;-87
2023/11/30 05:26:58;;;;;;;11.65;6.40;;;;;;;2.41;90.27;96583.31;4201069;28;20258;-87
2023/11/30 05:29:00;;;;;;;11.35;6.50;;;;;;;2.41;90.97;96580.75;4191290;28;20256;-88
2023/11/30 05:31:04;;;;;;;11.10;7.38;;;;;;;2.45;91.16;96577.06;4191244;28;20320;-88
2023/11/30 05:33:08;;;;;;;9.68;6.60;;;;;;;2.46;91.70;96575.31;4182485;28;20235;-88
2023/11/30 05:35:11;;;;;;;9.75;6.43;;;;;;;2.46;91.72;96583.03;4184960;28;20259;-88
2023/11/30 05:37:14;;;;;;;9.52;6.15;;;;;;;2.48;91.54;96576.88;4168972;28;20630;-88
2023/11/30 05:39:17;;;;;;;8.52;6.00;;;;;;;2.51;91.35;96575.84;4183218;28;20199;-87
2023/11/30 05:41:22;;;;;;;9.23;6.15;;;;;;;2.48;91.16;96571.75;4187366;28;20198;-88
2023/11/30 05:43:25;;;;;;;11.13;6.40;;;;;;;2.50;91.30;96582.75;4202657;28;20212;-86
2023/11/30 05:45:28;;;;;;;10.13;6.85;;;;;;;2.51;91.14;96581.00;4182896;28;20229;-87
2023/11/30 05:47:32;;;;;;;9.15;6.30;;;;;;;2.50;91.96;96589.66;4172957;28;20218;-86
2023/11/30 05:49:35;;;;;;;10.32;6.65;;;;;;;2.50;91.63;96577.59;4186780;28;20206;-85
2023/11/30 05:51:39;;;;;;;8.20;6.10;;;;;;;2.53;91.69;96579.19;4189059;28;20256;-86
2023/11/30 05:53:43;;;;;;;8.52;6.18;;;;;;;2.54;91.91;96584.22;4187867;28;20574;-86
2023/11/30 05:55:46;;;;;;;8.43;5.70;;;;;;;2.55;91.30;96577.31;4188350;28;20243;-87
2023/11/30 05:57:50;;;;;;;10.15;5.90;;;;;;;2.56;91.06;96579.81;4190365;28;20220;-86
2023/11/30 05:59:52;;;;;;;10.88;6.55;;;;;;;2.54;91.58;96575.66;4182879;28;21331;-85
2023/11/30 06:01:56;;;;;;;11.23;6.15;;;;;;;2.53;90.73;96572.28;4173673;28;20213;-86
2023/11/30 06:03:58;;;;;;;10.82;6.78;;;;;;;2.50;90.50;96566.50;4190686;28;20214;-85
2023/11/30 06:06:01;;;;;;;8.07;5.50;;;;;;;2.49;90.71;96569.97;4187194;28;20893;-86
2023/11/30 06:08:05;;;;;;;10.93;5.97;;;;;;;2.45;89.95;96558.22;4189227;28;20237;-84
2023/11/30 06:10:10;;;;;;;9.05;6.38;;;;;;;2.41;89.76;96549.88;4185577;28;20207;-85
2023/11/30 06:12:14;;;;;;;14.07;7.15;;;;;;;2.34;89.46;96545.19;4167570;28;20209;-84
2023/11/30 06:14:18;;;;;;;17.55;8.30;;;;;;;2.30;89.97;96541.19;4181364;28;20566;-85
2023/11/30 06:16:22;;;;;;;8.25;6.22;;;;;;;2.30;90.15;96540.34;4187830;28;20695;-85
2023/11/30 06:18:24;;;;;;;11.45;5.95;;;;;;;2.33;90.71;96546.13;4174940;28;20206;-85
2023/11/30 06:20:27;;;;;;;8.82;5.55;;;;;;;2.33;90.35;96536.66;4169911;28;20203;-85
2023/11/30 06:22:29;;;;;;;8.38;5.57;;;;;;;2.34;90.97;96530.59;4188066;28;20730;-87
2023/11/30 06:24:34;;;;;;;7.30;5.70;;;;;;;2.36;90.97;96527.91;4191565;28;20310;-85
2023/11/30 06:26:37;;;;;;;7.30;5.68;;;;;;;2.34;91.02;96538.31;4180526;28;20324;-86
2023/11/30 06:28:40;;;;;;;9.82;5.63;;;;;;;2.37;90.82;96542.44;4204728;28;20632;-87
2023/11/30 06:30:45;;;;;;;9.57;6.20;;;;;;;2.37;90.79;96538.13;4189942;28;20291;-87
2023/11/30 06:32:48;;;;;;;11.82;7.72;;;;;;;2.42;91.12;96538.69;4187443;28;20209;-87
2023/11/30 06:34:51;;;;;;;13.85;9.55;;;;;;;2.46;91.51;96542.69;4203191;28;20224;-87
2023/11/30 06:36:54;;;;;;;13.30;10.00;;;;;;;2.47;91.68;96544.34;4187723;28;20213;-87
2023/11/30 06:38:57;;;;;;;16.50;10.50;;;;;;;2.51;91.37;96555.28;4189238;28;20248;-84
2023/11/30 06:41:02;;;;;;;11.65;7.93;;;;;;;2.52;91.76;96552.59;4186841;28;20218;-85
2023/11/30 06:43:06;;;;;;;11.30;7.40;;;;;;;2.54;91.73;96544.78;4190618;28;20206;-85
2023/11/30 06:45:10;;;;;;;9.35;6.40;;;;;;;2.55;92.02;96546.47;4183999;28;20210;-85
2023/11/30 06:47:15;;;;;;;9.02;6.72;;;;;;;2.54;91.28;96545.66;4166750;28;20211;-85
2023/11/30 06:49:18;;;;;;;9.35;6.38;;;;;;;2.52;90.99;96550.03;4172832;28;20301;-85
2023/11/30 06:51:21;;;;;;;8.43;6.15;;;;;;;2.47;90.87;96544.34;4176361;28;20210;-86
2023/11/30 06:53:23;;;;;;;8.30;5.70;;;;;;;2.46;91.06;96529.84;4188045;28;20211;-87
2023/11/30 06:55:27;;;;;;;8.15;5.50;;;;;;;2.50;91.02;96521.03;4166249;28;20207;-85
2023/11/30 06:57:29;;;;;;;7.47;5.60;;;;;;;2.50;91.06;96528.75;4202703;28;20259;-86
2023/11/30 06:59:33;;;;;;;7.40;5.05;;;;;;;2.48;91.80;96533.16;4186230;28;20202;-84
2023/11/30 07:01:36;;;;;;;9.10;6.13;;;;;;;2.53;92.15;96531.13;4176710;28;20205;-85
2023/11/30 07:03:40;;;;;;;9.40;5.40;;;;;;;2.53;91.80;96525.16;4170326;28;20634;-84
2023/11/30 07:05:45;;;;;;;8.73;5.72;;;;;;;2.51;90.50;96520.13;4185511;28;20241;-84
2023/11/30 07:07:49;;;;;;;9.30;6.15;;;;;;;2.47;90.33;96520.41;4185128;28;20215;-84
2023/11/30 07:09:51;;;;;;;9.02;6.05;;;;;;;2.42;90.90;96523.25;4180517;28;20690;-84
2023/11/30 07:11:55;;;;;;;8.40;5.80;;;;;;;2.47;90.63;96523.78;4173898;28;20240;-84
2023/11/30 07:13:57;;;;;;;8.93;5.82;;;;;;;2.48;91.16;96530.59;4193320;28;20997;-84
2023/11/30 07:16:00;;;;;;;10.50;6.50;;;;;;;2.49;90.92;96521.94;4193384;28;20659;-85
2023/11/30 07:18:04;;;;;;;17.92;9.70;;;;;;;2.50;91.05;96522.78;4170482;28;20646;-85
2023/11/30 07:20:12;;;;;;;109.07;52.28;;;;;;;2.51;90.75;96524.41;4185583;28;20206;-86
2023/11/30 07:22:15;;;;;;;94.38;47.20;;;;;;;2.51;90.76;96525.25;4174728;28;20251;-85
2023/11/30 07:24:19;;;;;;;33.05;20.67;;;;;;;2.51;90.30;96525.25;4187331;28;20271;-85
2023/11/30 07:26:22;;;;;;;11.93;7.70;;;;;;;2.51;90.81;96514.97;4184596;28;20221;-86
2023/11/30 07:28:26;;;;;;;8.65;6.35;;;;;;;2.52;90.52;96515.78;4172153;28;20260;-86
2023/11/30 07:30:29;;;;;;;13.45;8.75;;;;;;;2.54;90.51;96514.78;4188282;28;20315;-84
2023/11/30 07:32:35;;;;;;;19.48;11.65;;;;;;;2.56;90.45;96512.94;4190312;28;20213;-85
2023/11/30 07:34:38;;;;;;;24.98;15.40;;;;;;;2.57;90.90;96509.44;4184546;28;20709;-86
2023/11/30 07:36:43;;;;;;;24.00;15.95;;;;;;;2.59;90.88;96512.72;4180021;28;20658;-85
2023/11/30 07:38:46;;;;;;;30.52;19.65;;;;;;;2.62;90.95;96515.13;4187531;28;20210;-86
2023/11/30 07:40:50;;;;;;;25.42;14.70;;;;;;;2.63;91.32;96518.50;4193379;28;20213;-87
2023/11/30 07:42:53;;;;;;;29.35;17.75;;;;;;;2.66;91.10;96526.03;4171947;28;20211;-85
2023/11/30 07:44:55;;;;;;;13.00;8.82;;;;;;;2.64;90.90;96523.56;4189204;28;20214;-84
2023/11/30 07:46:59;;;;;;;11.38;6.90;;;;;;;2.64;91.00;96520.97;4168636;28;20226;-86
2023/11/30 07:49:02;;;;;;;12.70;7.38;;;;;;;2.66;91.44;96506.28;4174082;28;20685;-86
2023/11/30 07:51:07;;;;;;;13.85;7.30;;;;;;;2.67;90.89;96510.50;4209687;28;20276;-87
2023/11/30 07:53:12;;;;;;;11.25;7.38;;;;;;;2.71;91.54;96522.25;4194326;28;20596;-86
2023/11/30 07:55:15;;;;;;;13.45;8.68;;;;;;;2.74;91.55;96532.34;4177570;28;20583;-86
2023/11/30 07:57:19;;;;;;;8.25;7.20;;;;;;;2.78;92.37;96536.38;4178764;28;20271;-86
2023/11/30 07:59:22;;;;;;;7.82;5.78;;;;;;;2.82;91.81;96546.38;4173821;28;20200;-87
2023/11/30 08:01:27;;;;;;;8.50;6.47;;;;;;;2.87;91.78;96543.50;4195768;28;20205;-86
2023/11/30 08:03:30;;;;;;;10.65;7.50;;;;;;;2.88;91.95;96535.69;4191124;28;20210;-87
2023/11/30 08:05:34;;;;;;;9.57;7.55;;;;;;;2.89;91.75;96526.25;4175544;28;20210;-86
2023/11/30 08:07:37;;;;;;;11.45;7.10;;;;;;;2.91;92.26;96534.69;4177920;28;20232;-86
2023/11/30 08:09:42;;;;;;;10.65;6.80;;;;;;;2.93;92.23;96533.69;4178242;28;20662;-84
2023/11/30 08:11:45;;;;;;;8.27;5.80;;;;;;;2.95;92.15;96526.69;4173602;28;20298;-87
2023/11/30 08:13:49;;;;;;;8.40;6.15;;;;;;;2.97;91.81;96532.53;4171501;28;20293;-87
2023/11/30 08:15:52;;;;;;;8.80;6.57;;;;;;;2.98;91.99;96528.25;4173607;28;20206;-86
2023/11/30 08:17:55;;;;;;;9.10;6.60;;;;;;;3.01;91.42;96528.03;4190660;28;20509;-85
2023/11/30 08:19:58;;;;;;;8.90;7.20;;;;;;;3.04;91.75;96517.56;4195558;28;20197;-86
2023/11/30 08:22:01;;;;;;;11.43;6.97;;;;;;;3.05;92.10;96511.47;4191324;28;20299;-86
2023/11/30 08:24:05;;;;;;;11.40;7.60;;;;;;;3.11;91.76;96516.22;4181353;28;20221;-89
2023/11/30 08:26:11;;;;;;;13.20;8.15;;;;;;;3.18;92.44;96513.16;4176517;28;20700;-87
2023/11/30 08:28:16;;;;;;;8.98;7.10;;;;;;;3.21;92.77;96517.28;4174616;28;20198;-86
2023/11/30 08:30:19;;;;;;;12.45;8.40;;;;;;;3.22;91.79;96526.63;4186797;28;20229;-88
2023/11/30 08:32:23;;;;;;;17.30;9.20;;;;;;;3.25;91.80;96539.31;4188786;28;20222;-87
2023/11/30 08:34:26;;;;;;;17.40;11.00;;;;;;;3.30;92.30;96535.53;4189856;28;20197;-89
2023/11/30 08:36:29;;;;;;;20.05;13.15;;;;;;;3.35;92.42;96531.75;4191129;28;20193;-86
2023/11/30 08:38:35;;;;;;;13.70;9.40;;;;;;;3.38;91.78;96531.53;4183506;28;20283;-87
2023/11/30 08:40:39;;;;;;;12.50;7.45;;;;;;;3.42;91.52;96521.84;4189927;28;20224;-87
2023/11/30 08:42:43;;;;;;;10.27;7.75;;;;;;;3.43;91.95;96516.59;4172465;28;20198;-87
2023/11/30 08:44:47;;;;;;;13.65;8.75;;;;;;;3.43;91.58;96521.75;4184847;28;20272;-87
2023/11/30 08:46:50;;;;;;;11.25;8.50;;;;;;;3.45;92.19;96517.31;4182900;28;20204;-87
2023/11/30 08:48:54;;;;;;;10.63;7.72;;;;;;;3.48;92.31;96511.97;4187585;28;20247;-86
2023/11/30 08:50:58;;;;;;;9.98;6.85;;;;;;;3.51;91.36;96514.34;4191152;28;20205;-87
2023/11/30 08:53:04;;;;;;;11.02;7.18;;;;;;;3.51;91.79;96506.59;4186662;28;20201;-88
2023/11/30 08:55:08;;;;;;;10.23;6.97;;;;;;;3.53;91.55;96504.75;4183715;28;20660;-86
2023/11/30 08:57:12;;;;;;;10.15;7.50;;;;;;;3.56;92.11;96509.69;4170729;28;20230;-86
2023/11/30 08:59:17;;;;;;;9.95;7.10;;;;;;;3.58;91.86;96512.19;4185906;28;20259;-86
2023/11/30 09:01:21;;;;;;;9.63;7.00;;;;;;;3.59;91.83;96512.06;4166896;28;20221;-86
2023/11/30 09:03:24;;;;;;;17.80;9.70;;;;;;;3.65;92.95;96514.25;4186539;28;20551;-86
2023/11/30 09:05:28;;;;;;;9.75;7.57;;;;;;;3.70;91.47;96507.06;4189165;28;20201;-86
2023/11/30 09:07:32;;;;;;;13.68;7.63;;;;;;;3.73;91.84;96502.50;4186829;28;20634;-86
2023/11/30 09:09:35;;;;;;;8.88;6.63;;;;;;;3.78;91.54;96503.00;4201049;28;20201;-86
2023/11/30 09:11:38;;;;;;;12.32;8.35;;;;;;;3.79;91.64;96507.25;4188551;28;20198;-86
2023/11/30 09:13:42;;;;;;;11.40;8.18;;;;;;;3.82;91.62;96506.22;4172029;28;20205;-86
2023/11/30 09:15:46;;;;;;;12.10;8.13;;;;;;;3.88;91.55;96500.66;4172889;28;20202;-86
2023/11/30 09:17:49;;;;;;;13.43;9.18;;;;;;;3.92;90.81;96496.94;4184695;28;20202;-86
2023/11/30 09:19:53;;;;;;;13.88;9.70;;;;;;;3.95;90.75;96499.31;4176019;28;20804;-84
2023/11/30 09:21:57;;;;;;;13.55;8.70;;;;;;;3.95;91.46;96501.88;4190034;28;20271;-88
2023/11/30 09:24:00;;;;;;;13.95;8.25;;;;;;;3.99;92.13;96498.19;4184616;28;20204;-85
2023/11/30 09:26:06;;;;;;;14.63;9.00;;;;;;;4.00;91.31;96500.66;4189829;28;20206;-85
2023/11/30 09:28:09;;;;;;;10.93;8.63;;;;;;;4.03;91.75;96504.75;4189540;28;20204;-85
2023/11/30 09:30:14;;;;;;;12.60;8.38;;;;;;;4.05;91.64;96502.91;4188923;28;20266;-85
2023/11/30 09:32:19;;;;;;;10.73;7.45;;;;;;;4.06;91.73;96504.53;4189339;28;20758;-85
2023/11/30 09:34:22;;;;;;;11.13;7.75;;;;;;;4.07;91.10;96512.19;4194928;28;24203;-85
2023/11/30 09:36:25;;;;;;;11.63;8.63;;;;;;;4.10;92.22;96521.47;4187751;28;20297;-86
2023/11/30 09:38:28;;;;;;;11.85;7.63;;;;;;;4.12;91.35;96519.59;4207900;28;20220;-85
2023/11/30 09:40:30;;;;;;;10.32;7.78;;;;;;;4.17;92.27;96520.94;4191498;28;20688;-86
2023/11/30 09:42:33;;;;;;;10.82;8.05;;;;;;;4.20;92.79;96518.16;4189273;28;20579;-86